Aviation Digital Data Service (ADDS)

Output produced by METARs form (1055 UTC 17 June 2019)
found at http://www.aviationweather.gov/metar/data/
 
METAR text: FVFA 160900Z 07009KT CAVOK 20/10 Q1027 NOSIG
Conditions at: FVFA (VICTORIA FALLS , ZW) observed 0900 UTC 16 June 2019
Temperature: 20.0°C (68°F)
Dewpoint: 10.0°C (50°F) [RH = 53%]
Pressure (altimeter): 30.32 inches Hg (1027.0 mb)
Winds: from the ENE (70 degrees) at 10 MPH (9 knots; 4.6 m/s)
Visibility: 6 or more miles (10+ km)
Ceiling: ceiling and visibility are OK
Clouds: unknown
Weather: no significant weather observed at this time

METAR text: FVFA 160700Z 09010KT CAVOK 17/07 Q1027 NOSIG
Conditions at: FVFA (VICTORIA FALLS , ZW) observed 0700 UTC 16 June 2019
Temperature: 17.0°C (63°F)
Dewpoint: 7.0°C (45°F) [RH = 52%]
Pressure (altimeter): 30.32 inches Hg (1027.0 mb)
Winds: from the E (90 degrees) at 12 MPH (10 knots; 5.1 m/s)
Visibility: 6 or more miles (10+ km)
Ceiling: ceiling and visibility are OK
Clouds: unknown
Weather: no significant weather observed at this time